Time;durP1;ratioP1;P1;durP2;ratioP2;P2;SDS_P1;SDS_P2;PMS_P1;PMS_P2;Temp;Humidity;BMP_temperature;BMP_pressure;BME280_temperature;BME280_humidity;BME280_pressure;Samples;Min_cycle;Max_cycle;Signal;HPM_P1;HPM_P2
2021/12/03 00:13:15;;;;;;;4.18;3.22;;;22.60;60.90;;;;;;31608359;28;20037;-45
2021/12/03 00:28:18;;;;;;;2.42;2.22;;;22.60;61.30;;;;;;31621905;28;20457;-44
2021/12/03 00:43:22;;;;;;;3.40;1.23;;;22.90;62.10;;;;;;31620245;28;20104;-57
2021/12/03 00:58:24;;;;;;;0.80;0.80;;;23.30;61.80;;;;;;31602150;28;20045;-60
2021/12/03 01:13:26;;;;;;;0.70;0.70;;;23.30;61.60;;;;;;31613692;28;20049;-44
2021/12/03 01:28:28;;;;;;;0.65;0.30;;;23.10;61.90;;;;;;31641760;28;20071;-47
2021/12/03 01:43:31;;;;;;;0.20;0.20;;;23.00;61.90;;;;;;31641846;28;20040;-60
2021/12/03 01:58:34;;;;;;;0.50;0.30;;;22.90;61.80;;;;;;31638421;28;20052;-57
2021/12/03 02:13:36;;;;;;;0.20;0.20;;;22.90;61.80;;;;;;31634877;28;20051;-47
2021/12/03 02:28:43;;;;;;;0.20;0.20;;;22.80;61.80;;;;;;31634366;28;20060;-57
2021/12/03 02:43:45;;;;;;;0.30;0.30;;;22.70;62.40;;;;;;31632949;28;20133;-49
2021/12/03 02:58:47;;;;;;;0.20;0.20;;;23.10;62.70;;;;;;31631289;28;20092;-59
2021/12/03 03:13:50;;;;;;;0.20;0.20;;;23.30;62.60;;;;;;31630114;28;20068;-48
2021/12/03 03:28:56;;;;;;;0.20;0.20;;;23.20;62.00;;;;;;31626922;28;20052;-59
2021/12/03 03:43:58;;;;;;;0.20;0.20;;;23.00;62.20;;;;;;31625414;28;20059;-50
2021/12/03 03:59:00;;;;;;;0.50;0.20;;;23.00;62.40;;;;;;31625141;28;20047;-59
2021/12/03 04:14:03;;;;;;;0.50;0.40;;;22.90;62.40;;;;;;31622489;28;20056;-58
2021/12/03 04:29:05;;;;;;;0.50;0.50;;;22.80;62.00;;;;;;31621230;28;20080;-58
2021/12/03 04:44:07;;;;;;;0.60;0.60;;;22.90;62.60;;;;;;31623506;28;20052;-57
2021/12/03 04:59:09;;;;;;;1.60;0.90;;;23.20;62.20;;;;;;31628551;28;20064;-48
2021/12/03 05:14:11;;;;;;;0.52;0.52;;;23.10;61.50;;;;;;31645109;28;20095;-48
2021/12/03 05:29:14;;;;;;;2.45;0.95;;;23.00;61.60;;;;;;31641886;28;20052;-57
2021/12/03 05:44:17;;;;;;;3.80;0.88;;;22.90;62.00;;;;;;31639704;28;20092;-58
2021/12/03 05:59:19;;;;;;;19.73;2.63;;;22.90;62.40;;;;;;31636685;28;20124;-58
2021/12/03 06:14:21;;;;;;;0.90;0.52;;;22.70;62.60;;;;;;31638287;28;20051;-47
2021/12/03 06:29:23;;;;;;;1.20;0.50;;;22.90;62.60;;;;;;31633267;28;20060;-58
2021/12/03 06:44:25;;;;;;;1.52;1.15;;;23.30;61.90;;;;;;31630652;28;20048;-58
2021/12/03 06:59:28;;;;;;;2.78;0.90;;;23.20;61.80;;;;;;31631055;28;20044;-57
2021/12/03 07:14:30;;;;;;;1.90;1.05;;;23.10;62.00;;;;;;31630154;28;20051;-56
2021/12/03 07:29:32;;;;;;;6.55;3.47;;;22.90;62.30;;;;;;31634026;28;20049;-47
2021/12/03 07:44:34;;;;;;;13.45;10.00;;;22.50;52.40;;;;;;31537678;28;20116;-45
2021/12/03 07:59:36;;;;;;;8.07;6.25;;;22.40;55.40;;;;;;31512003;28;20064;-49
2021/12/03 08:14:38;;;;;;;31.75;20.55;;;22.70;53.60;;;;;;31499660;28;20049;-46
2021/12/03 08:29:41;;;;;;;18.95;13.98;;;22.60;51.00;;;;;;31501289;28;20060;-49
2021/12/03 08:44:43;;;;;;;24.67;16.02;;;23.20;52.00;;;;;;31495334;28;20080;-54
2021/12/03 08:59:45;;;;;;;12.43;10.20;;;23.20;53.50;;;;;;31498044;28;20045;-50
2021/12/03 09:14:51;;;;;;;13.55;10.23;;;23.10;54.30;;;;;;31495508;28;20059;-53
2021/12/03 09:29:54;;;;;;;13.70;10.68;;;23.00;54.70;;;;;;31495892;28;20060;-52
2021/12/03 09:44:56;;;;;;;8.38;6.85;;;22.90;55.10;;;;;;31515428;28;20048;-45
2021/12/03 10:31:00;;;;;;;10.13;8.27;;;23.30;56.60;;;;;;31510911;28;20049;-50
2021/12/03 15:07:18;;;;;;;27.33;20.70;;;23.20;53.50;;;;;;31606708;28;20074;-45
2021/12/03 16:53:27;;;;;;;25.58;22.40;;;23.10;56.40;;;;;;31627583;28;20064;-59
2021/12/03 18:55:47;;;;;;;30.30;20.90;;;23.20;57.20;;;;;;31507020;28;20096;-51
2021/12/03 19:10:50;;;;;;;42.17;23.85;;;23.20;57.60;;;;;;31499138;28;20163;-45
2021/12/03 19:25:53;;;;;;;32.33;20.92;;;23.10;58.20;;;;;;31495666;28;20064;-41
2021/12/03 19:40:59;;;;;;;44.90;22.55;;;23.10;58.50;;;;;;31599004;28;20041;-47
2021/12/03 19:56:01;;;;;;;35.70;19.60;;;22.90;58.00;;;;;;31626866;28;20044;-48
2021/12/03 20:11:09;;;;;;;33.75;17.75;;;22.70;58.40;;;;;;31623862;28;20052;-47
2021/12/03 20:41:34;;;;;;;47.70;18.38;;;22.70;59.40;;;;;;31599627;28;20044;-52
2021/12/03 21:12:00;;;;;;;30.73;14.10;;;22.70;59.60;;;;;;31617655;28;20101;-46
2021/12/03 21:27:09;;;;;;;30.67;13.38;;;22.60;59.30;;;;;;31596812;28;20076;-50
2021/12/03 21:42:11;;;;;;;24.93;12.00;;;22.70;59.10;;;;;;31576637;28;20075;-59
2021/12/03 21:57:13;;;;;;;18.55;11.00;;;22.70;59.70;;;;;;31610417;28;20045;-47
2021/12/03 22:12:15;;;;;;;22.15;15.45;;;23.20;59.30;;;;;;31539756;28;20511;-50
2021/12/03 22:27:17;;;;;;;20.08;13.93;;;23.30;58.20;;;;;;31514124;28;20060;-45
2021/12/03 22:42:19;;;;;;;23.05;13.90;;;23.30;58.70;;;;;;31511291;28;20064;-51
2021/12/03 22:57:22;;;;;;;19.63;12.57;;;23.20;58.80;;;;;;31508542;28;20073;-53
2021/12/03 23:12:24;;;;;;;18.02;11.55;;;23.20;58.90;;;;;;31505011;28;20053;-54
2021/12/03 23:27:26;;;;;;;14.60;10.70;;;23.20;59.00;;;;;;31505781;28;20108;-40
2021/12/03 23:42:28;;;;;;;16.80;10.52;;;23.10;59.30;;;;;;31503064;28;20045;-58
2021/12/03 23:57:30;;;;;;;13.05;9.93;;;23.00;59.40;;;;;;31501083;28;20068;-55
